createdAt,value
2023-04-10T00:03:35.709Z,7.25
2023-04-10T00:08:32.100Z,7.36
2023-04-10T00:13:28.749Z,7.37
2023-04-10T00:18:25.162Z,7.32
2023-04-10T00:24:35.891Z,7.38
2023-04-10T00:29:32.352Z,7.39
2023-04-10T00:34:28.968Z,7.29
2023-04-10T00:39:25.537Z,7.46
2023-04-10T00:45:36.138Z,7.4
2023-04-10T00:50:32.621Z,7.43
2023-04-10T00:55:29.160Z,7.47
2023-04-10T01:00:25.743Z,7.47
2023-04-10T01:06:36.388Z,7.49
2023-04-10T01:11:32.891Z,7.51
2023-04-10T01:16:29.497Z,7.47
2023-04-10T01:21:26.133Z,7.42
2023-04-10T01:27:36.615Z,7.43
2023-04-10T01:32:33.171Z,7.48
2023-04-10T01:37:29.736Z,7.44
2023-04-10T01:42:26.228Z,7.44
2023-04-10T01:48:36.985Z,7.51
2023-04-10T01:53:33.439Z,7.48
2023-04-10T01:58:29.973Z,7.49
2023-04-10T02:03:26.845Z,7.49
2023-04-10T02:09:37.228Z,7.5
2023-04-10T02:14:33.699Z,7.44
2023-04-10T02:19:30.198Z,7.4
2023-04-10T02:24:26.779Z,7.44
2023-04-10T02:30:37.393Z,7.44
2023-04-10T02:35:33.978Z,7.4
2023-04-10T02:40:30.455Z,7.44
2023-04-10T02:45:27.007Z,7.44
2023-04-10T02:51:37.693Z,7.44
2023-04-10T02:56:34.211Z,7.4
2023-04-10T03:01:30.775Z,7.43
2023-04-10T03:06:27.367Z,7.37
2023-04-10T03:12:38.238Z,7.31
2023-04-10T03:16:28.609Z,7.32
2023-04-10T03:27:35.752Z,7.28
2023-04-10T03:32:32.258Z,7.22
2023-04-10T03:37:28.903Z,7.23
2023-04-10T03:42:25.343Z,7.24
2023-04-10T03:48:35.998Z,7.2
2023-04-10T03:53:34.606Z,7.21
2023-04-10T03:58:29.140Z,7.26
2023-04-10T04:03:25.795Z,7.25
2023-04-10T04:09:36.261Z,7.28
2023-04-10T04:14:32.796Z,7.3
2023-04-10T04:19:29.313Z,7.25
2023-04-10T04:24:25.854Z,7.25
2023-04-10T04:30:36.519Z,7.16
2023-04-10T04:35:33.103Z,7.2
2023-04-10T04:40:29.634Z,7.16
2023-04-10T04:51:36.800Z,7.16
2023-04-10T04:56:33.336Z,7.11
2023-04-10T05:01:30.010Z,7.16
2023-04-10T05:06:26.414Z,7.2
2023-04-10T05:12:37.071Z,7.25
2023-04-10T05:17:33.998Z,7.3
2023-04-10T05:22:30.196Z,7.35
2023-04-10T05:27:26.763Z,7.35
2023-04-10T05:33:37.332Z,7.44
2023-04-10T05:38:33.884Z,7.45
2023-04-10T05:43:30.362Z,7.41
2023-04-10T05:48:26.923Z,7.41
2023-04-10T05:54:37.688Z,7.36
2023-04-10T05:59:34.235Z,7.34
2023-04-10T06:04:30.756Z,7.28
2023-04-10T06:09:27.186Z,7.26
2023-04-10T06:15:38.024Z,7.17
2023-04-10T06:20:34.509Z,7.03
2023-04-10T06:25:30.946Z,6.98
2023-04-10T06:30:27.477Z,7.1
2023-04-10T06:31:41.605Z,7.07
2023-04-10T06:36:38.135Z,6.96
2023-04-10T06:41:34.736Z,6.95
2023-04-10T06:46:31.197Z,6.83
2023-04-10T06:51:27.840Z,6.84
2023-04-10T06:57:38.443Z,6.87
2023-04-10T07:02:35.232Z,6.82
2023-04-10T07:07:31.416Z,6.78
2023-04-10T07:12:28.097Z,6.67
2023-04-10T07:17:24.619Z,6.75
2023-04-10T07:23:35.219Z,6.46
2023-04-10T07:28:31.726Z,6.44
2023-04-10T07:33:28.318Z,6.49
2023-04-10T07:38:24.863Z,6.55
2023-04-10T07:44:35.461Z,6.41
2023-04-10T07:49:31.990Z,6.57
2023-04-10T07:54:28.553Z,6.36
2023-04-10T07:56:56.766Z,6.46
2023-04-10T08:05:35.812Z,6.35
2023-04-10T08:10:32.238Z,6.25
2023-04-10T08:15:28.791Z,6.34
2023-04-10T08:20:25.380Z,6.36
2023-04-10T08:26:36.135Z,6.27
2023-04-10T08:31:32.572Z,5.84
2023-04-10T08:36:29.156Z,5.91
2023-04-10T08:41:25.552Z,5.82
2023-04-10T08:47:36.313Z,5.92
2023-04-10T08:52:32.755Z,5.86
2023-04-10T08:56:15.146Z,5.74
2023-04-10T08:57:29.288Z,5.88
2023-04-10T09:02:26.138Z,5.98
2023-04-10T09:08:36.501Z,5.98
2023-04-10T09:13:33.032Z,6.07
2023-04-10T09:18:29.604Z,5.72
2023-04-10T09:29:36.803Z,5.86
2023-04-10T09:34:33.301Z,5.71
2023-04-10T09:39:29.881Z,5.61
2023-04-10T09:44:26.403Z,5.83
2023-04-10T09:50:39.601Z,5.82
2023-04-10T09:55:33.664Z,5.99
2023-04-10T10:00:30.099Z,5.91
2023-04-10T10:05:26.631Z,5.77
2023-04-10T10:11:37.319Z,5.84
2023-04-10T10:16:33.847Z,5.79
2023-04-10T10:21:30.419Z,5.84
2023-04-10T10:32:37.703Z,5.78
2023-04-10T10:37:34.107Z,5.87
2023-04-10T10:42:30.615Z,5.8
2023-04-10T10:47:27.234Z,5.54
2023-04-10T10:53:37.919Z,5.77
2023-04-10T10:58:34.358Z,5.86
2023-04-10T11:03:31.073Z,5.89
2023-04-10T11:08:27.452Z,5.76
2023-04-10T11:14:38.138Z,5.73
2023-04-10T11:19:34.634Z,5.83
2023-04-10T11:24:31.135Z,5.82
2023-04-10T11:29:27.819Z,5.81
2023-04-10T11:34:32.406Z,5.79
2023-04-10T11:39:28.990Z,5.71
2023-04-10T11:44:25.547Z,5.61
2023-04-10T11:50:36.153Z,5.69
2023-04-10T11:55:32.688Z,5.45
2023-04-10T12:00:29.225Z,5.69
2023-04-10T12:05:25.826Z,5.49
2023-04-10T12:11:36.446Z,5.58
2023-04-10T12:16:32.940Z,5.68
2023-04-10T12:21:29.617Z,5.7
2023-04-10T12:26:26.010Z,5.7
2023-04-10T12:32:36.687Z,5.65
2023-04-10T12:37:33.252Z,5.89
2023-04-10T12:42:29.733Z,5.81
2023-04-10T12:47:26.391Z,5.93
2023-04-10T12:53:37.041Z,6.09
2023-04-10T12:58:33.525Z,6.32
2023-04-10T13:03:30.237Z,6.47
2023-04-10T13:08:26.623Z,6.79
2023-04-10T13:14:37.318Z,6.91
2023-04-10T13:19:33.741Z,6.82
2023-04-10T13:24:30.349Z,6.72
2023-04-10T13:29:26.811Z,6.85
2023-04-10T13:35:37.595Z,6.45
2023-04-10T13:40:34.076Z,6.41
2023-04-10T13:45:31.131Z,6.22
2023-04-10T13:50:27.182Z,6.18
2023-04-10T13:56:37.869Z,5.72
2023-04-10T14:01:34.440Z,6.21
2023-04-10T14:06:30.946Z,5.62
2023-04-10T14:11:27.410Z,5.48
2023-04-10T14:17:38.100Z,6.02
2023-04-10T14:22:34.628Z,6.21
2023-04-10T14:27:31.058Z,5.97
2023-04-10T14:32:27.826Z,5.88
2023-04-10T14:38:38.321Z,6.28
2023-04-10T14:43:34.864Z,5.93
2023-04-10T14:48:31.485Z,5.69
2023-04-10T14:53:27.922Z,5.46
2023-04-10T14:59:38.643Z,5.54
2023-04-10T15:04:35.216Z,5.65
2023-04-10T15:09:31.594Z,5.6
2023-04-10T15:14:28.219Z,5.41
2023-04-10T15:19:24.773Z,5.38
2023-04-10T15:25:35.440Z,5.61
2023-04-10T15:35:28.451Z,5.38
2023-04-10T15:40:24.966Z,5.33
2023-04-10T15:46:35.736Z,5.18
2023-04-10T15:51:32.147Z,5.16
2023-04-10T15:56:28.772Z,5.24
2023-04-10T16:01:25.235Z,5.26
2023-04-10T16:07:35.927Z,5.31
2023-04-10T16:12:32.439Z,5.27
2023-04-10T16:17:29.084Z,5.33
2023-04-10T16:22:25.590Z,5.36
2023-04-10T16:28:36.262Z,5.35
2023-04-10T16:33:32.693Z,5.32
2023-04-10T16:38:29.224Z,5.47
2023-04-10T16:43:25.811Z,5.41
2023-04-10T16:49:36.494Z,5.46
2023-04-10T16:54:32.955Z,5.42
2023-04-10T16:59:29.491Z,5.44
2023-04-10T17:04:26.092Z,5.62
2023-04-10T17:10:36.737Z,5.62
2023-04-10T17:15:33.368Z,5.59
2023-04-10T17:20:29.837Z,5.63
2023-04-10T17:25:26.397Z,5.71
2023-04-10T17:31:37.002Z,5.7
2023-04-10T17:36:33.484Z,5.91
2023-04-10T17:37:47.670Z,5.97
2023-04-10T17:41:30.092Z,6
2023-04-10T17:46:26.541Z,6.33
2023-04-10T17:52:37.235Z,6.59
2023-04-10T17:57:33.855Z,6.52
2023-04-10T18:02:30.298Z,6.87
2023-04-10T18:07:26.838Z,6.71
2023-04-10T18:13:37.483Z,6.72
2023-04-10T18:18:34.006Z,6.68
2023-04-10T18:23:30.542Z,6.68
2023-04-10T18:28:27.080Z,6.64
2023-04-10T18:34:37.733Z,6.76
2023-04-10T18:39:34.321Z,7.19
2023-04-10T18:44:32.181Z,7.64
2023-04-10T18:49:27.329Z,8.15
2023-04-10T18:55:38.048Z,8.27
2023-04-10T19:00:34.574Z,8.25
2023-04-10T19:05:31.065Z,8.86
2023-04-10T19:10:27.598Z,8.96
2023-04-10T19:15:24.275Z,9.31
2023-04-10T19:21:34.919Z,9.5
2023-04-10T19:26:31.305Z,9.6
2023-04-10T19:31:27.978Z,9.61
2023-04-10T19:36:24.464Z,9.64
2023-04-10T19:42:35.141Z,9.98
2023-04-10T19:47:31.583Z,9.86
2023-04-10T19:52:28.140Z,9.49
2023-04-10T19:58:40.685Z,8.99
2023-04-10T20:03:35.529Z,9.05
2023-04-10T20:13:28.466Z,10.92
2023-04-10T20:18:25.030Z,10.65
2023-04-10T20:24:35.703Z,10.2
2023-04-10T20:29:32.124Z,10
2023-04-10T20:34:28.723Z,9.82
2023-04-10T20:45:35.915Z,9.76
2023-04-10T20:50:32.488Z,9.76
2023-04-10T20:55:28.961Z,9.63
2023-04-10T21:00:25.481Z,9.57
2023-04-10T21:06:36.170Z,9.45
2023-04-10T21:11:32.667Z,9.1
2023-04-10T21:16:29.216Z,8.87
2023-04-10T21:21:25.748Z,8.81
2023-04-10T21:27:36.421Z,8.81
2023-04-10T21:32:33.031Z,8.81
2023-04-10T21:37:29.535Z,8.92
2023-04-10T21:42:25.965Z,8.98
2023-04-10T21:48:36.642Z,9.04
2023-04-10T21:53:33.239Z,9.1
2023-04-10T21:58:29.797Z,9.04
2023-04-10T22:03:26.311Z,9.04
2023-04-10T22:09:36.952Z,8.98
2023-04-10T22:14:33.448Z,8.98
2023-04-10T22:19:29.960Z,8.92
2023-04-10T22:24:26.497Z,9.04
2023-04-10T22:30:37.220Z,9.04
2023-04-10T22:35:33.748Z,9.1
2023-04-10T22:40:30.238Z,8.98
2023-04-10T22:45:26.871Z,8.87
2023-04-10T22:51:37.503Z,8.87
2023-04-10T22:56:33.985Z,8.87
2023-04-10T23:01:30.508Z,8.87
2023-04-10T23:06:27.045Z,8.92
2023-04-10T23:12:37.687Z,8.98
2023-04-10T23:17:34.374Z,8.98
2023-04-10T23:22:30.741Z,8.92
2023-04-10T23:27:27.320Z,8.98
2023-04-10T23:33:37.962Z,8.92
2023-04-10T23:38:34.553Z,8.92
2023-04-10T23:43:31.083Z,8.75
2023-04-10T23:48:27.666Z,8.81
2023-04-10T23:54:38.343Z,8.81
2023-04-10T23:58:28.857Z,8.75
